createdAt,value
2023-04-14T00:00:09.029Z,98063.63
2023-04-14T00:03:18.370Z,98065.28
2023-04-14T00:06:20.514Z,98060.94
2023-04-14T00:09:22.552Z,98062.16
2023-04-14T00:12:24.438Z,98066.03
2023-04-14T00:15:26.530Z,98065.59
2023-04-14T00:18:28.486Z,98061.25
2023-04-14T00:21:31.770Z,98070.69
2023-04-14T00:24:33.640Z,98071.44
2023-04-14T00:27:35.906Z,98071.00
2023-04-14T00:30:37.776Z,98078.63
2023-04-14T00:33:40.698Z,98081.06
2023-04-14T00:36:42.514Z,98075.69
2023-04-14T00:39:44.473Z,98073.22
2023-04-14T00:42:47.407Z,98081.16
2023-04-14T00:45:50.629Z,98072.31
2023-04-14T00:48:52.599Z,98074.34
2023-04-14T00:51:56.293Z,98078.50
2023-04-14T00:54:59.692Z,98077.09
2023-04-14T00:58:02.098Z,98079.78
2023-04-14T01:01:04.257Z,98080.97
2023-04-14T01:04:06.353Z,98084.47
2023-04-14T01:07:12.005Z,98081.63
2023-04-14T01:10:14.336Z,98078.03
2023-04-14T01:13:41.241Z,98077.47
2023-04-14T01:16:50.305Z,98080.91
2023-04-14T01:20:08.724Z,98088.16
2023-04-14T01:23:17.676Z,98086.69
2023-04-14T01:26:23.553Z,98084.22
2023-04-14T01:30:04.962Z,98085.03
2023-04-14T01:33:13.293Z,98078.41
2023-04-14T01:36:24.858Z,98084.31
2023-04-14T01:39:35.023Z,98083.50
2023-04-14T01:42:40.133Z,98086.44
2023-04-14T01:45:51.581Z,98090.75
2023-04-14T01:48:54.590Z,98091.66
2023-04-14T01:51:56.836Z,98092.69
2023-04-14T01:55:05.848Z,98085.69
2023-04-14T01:58:09.396Z,98089.81
2023-04-14T02:01:11.572Z,98082.44
2023-04-14T02:04:14.789Z,98090.09
2023-04-14T02:07:19.436Z,98092.75
2023-04-14T02:10:23.642Z,98097.91
2023-04-14T02:13:27.278Z,98097.28
2023-04-14T02:16:29.974Z,98100.78
2023-04-14T02:19:34.035Z,98099.94
2023-04-14T02:22:37.603Z,98110.47
2023-04-14T02:25:46.795Z,98102.25
2023-04-14T02:29:09.902Z,98110.25
2023-04-14T02:32:17.634Z,98107.97
2023-04-14T02:35:27.413Z,98116.00
2023-04-14T02:38:39.332Z,98119.31
2023-04-14T02:41:44.666Z,98118.03
2023-04-14T02:44:52.058Z,98115.34
2023-04-14T02:47:58.113Z,98124.38
2023-04-14T02:51:02.302Z,98128.44
2023-04-14T02:54:06.151Z,98125.03
2023-04-14T02:57:15.811Z,98127.50
2023-04-14T03:00:22.459Z,98125.28
2023-04-14T03:03:28.712Z,98139.03
2023-04-14T03:06:31.916Z,98140.31
2023-04-14T03:09:35.088Z,98142.44
2023-04-14T03:12:39.404Z,98144.00
2023-04-14T03:15:44.733Z,98148.78
2023-04-14T03:18:50.688Z,98150.38
2023-04-14T03:22:01.366Z,98148.16
2023-04-14T03:25:05.319Z,98157.84
2023-04-14T03:28:13.706Z,98155.53
2023-04-14T03:31:19.531Z,98157.66
2023-04-14T03:34:30.374Z,98162.25
2023-04-14T03:37:36.695Z,98171.59
2023-04-14T03:40:46.447Z,98166.97
2023-04-14T03:43:54.695Z,98167.81
2023-04-14T03:46:57.258Z,98172.78
2023-04-14T03:50:01.892Z,98175.63
2023-04-14T03:53:08.590Z,98177.66
2023-04-14T03:56:16.400Z,98180.91
2023-04-14T03:59:21.966Z,98190.38
2023-04-14T04:02:26.375Z,98185.31
2023-04-14T04:05:28.598Z,98189.19
2023-04-14T04:08:32.477Z,98182.38
2023-04-14T04:11:35.642Z,98184.59
2023-04-14T04:14:40.564Z,98190.19
2023-04-14T04:17:47.664Z,98197.66
2023-04-14T04:20:53.310Z,98196.38
2023-04-14T04:23:58.215Z,98207.06
2023-04-14T04:27:01.500Z,98203.75
2023-04-14T04:30:08.271Z,98212.50
2023-04-14T04:33:13.647Z,98219.59
2023-04-14T04:36:16.798Z,98215.56
2023-04-14T04:39:19.732Z,98211.69
2023-04-14T04:42:21.799Z,98216.38
2023-04-14T04:46:13.074Z,98222.00
2023-04-14T04:49:14.993Z,98216.00
2023-04-14T04:52:16.966Z,98221.25
2023-04-14T04:55:18.995Z,98225.22
2023-04-14T04:58:20.916Z,98223.00
2023-04-14T05:01:22.865Z,98223.38
2023-04-14T05:04:24.928Z,98236.09
2023-04-14T05:07:26.797Z,98233.88
2023-04-14T05:10:29.075Z,98234.06
2023-04-14T05:13:31.054Z,98238.50
2023-04-14T05:16:33.566Z,98245.50
2023-04-14T05:19:35.685Z,98233.59
2023-04-14T05:22:37.562Z,98241.25
2023-04-14T05:25:39.432Z,98231.09
2023-04-14T05:28:41.757Z,98243.34
2023-04-14T05:31:43.729Z,98241.59
2023-04-14T05:34:45.877Z,98247.59
2023-04-14T05:37:47.813Z,98255.63
2023-04-14T05:40:50.514Z,98257.91
2023-04-14T05:43:52.400Z,98266.78
2023-04-14T05:46:54.440Z,98266.59
2023-04-14T05:49:56.246Z,98275.16
2023-04-14T05:52:58.157Z,98281.44
2023-04-14T05:56:00.014Z,98279.06
2023-04-14T05:59:01.942Z,98289.56
2023-04-14T06:02:07.358Z,98299.81
2023-04-14T06:05:09.885Z,98291.59
2023-04-14T06:08:11.915Z,98295.28
2023-04-14T06:11:14.405Z,98296.75
2023-04-14T06:14:16.274Z,98302.13
2023-04-14T06:17:18.313Z,98308.84
2023-04-14T06:20:21.875Z,98312.16
2023-04-14T06:23:24.749Z,98316.50
2023-04-14T06:26:26.694Z,98326.56
2023-04-14T06:29:28.682Z,98327.56
2023-04-14T06:32:30.606Z,98333.56
2023-04-14T06:35:33.832Z,98340.59
2023-04-14T06:38:36.225Z,98336.63
2023-04-14T06:41:38.104Z,98340.41
2023-04-14T06:44:40.611Z,98348.88
2023-04-14T06:47:42.605Z,98350.28
2023-04-14T06:50:44.659Z,98353.13
2023-04-14T06:53:46.693Z,98353.13
2023-04-14T06:56:48.601Z,98353.13
2023-04-14T06:59:51.230Z,98357.28
2023-04-14T07:02:53.285Z,98368.16
2023-04-14T07:05:55.333Z,98367.34
2023-04-14T07:08:57.221Z,98373.78
2023-04-14T07:11:59.225Z,98371.84
2023-04-14T07:15:01.138Z,98388.09
2023-04-14T07:18:03.181Z,98387.06
2023-04-14T07:21:05.350Z,98390.84
2023-04-14T07:24:07.329Z,98386.53
2023-04-14T07:27:15.778Z,98394.09
2023-04-14T07:30:18.163Z,98397.59
2023-04-14T07:33:22.430Z,98401.84
2023-04-14T07:36:24.393Z,98394.72
2023-04-14T07:39:26.304Z,98399.91
2023-04-14T07:42:28.966Z,98393.53
2023-04-14T07:45:31.342Z,98402.56
2023-04-14T07:48:34.823Z,98408.28
2023-04-14T07:51:36.927Z,98410.59
2023-04-14T07:54:38.787Z,98413.28
2023-04-14T07:57:41.531Z,98416.88
2023-04-14T08:00:43.881Z,98415.75
2023-04-14T08:03:47.177Z,98415.31
2023-04-14T08:06:49.144Z,98422.31
2023-04-14T08:09:51.130Z,98417.69
2023-04-14T08:12:53.072Z,98429.69
2023-04-14T08:15:54.991Z,98433.47
2023-04-14T08:18:58.373Z,98427.38
2023-04-14T08:22:00.228Z,98429.41
2023-04-14T08:25:02.135Z,98433.75
2023-04-14T08:28:04.118Z,98434.84
2023-04-14T08:31:06.658Z,98437.25
2023-04-14T08:34:08.705Z,98438.19
2023-04-14T08:37:10.681Z,98446.19
2023-04-14T08:40:13.332Z,98443.78
2023-04-14T08:43:15.542Z,98454.59
2023-04-14T08:46:20.069Z,98455.69
2023-04-14T08:49:39.603Z,98465.72
2023-04-14T08:52:41.980Z,98467.81
2023-04-14T08:55:44.625Z,98469.72
2023-04-14T08:58:47.382Z,98477.28
2023-04-14T09:01:50.220Z,98474.31
2023-04-14T09:04:53.961Z,98485.19
2023-04-14T09:07:56.818Z,98490.88
2023-04-14T09:10:59.064Z,98486.91
2023-04-14T09:14:01.935Z,98494.00
2023-04-14T09:17:04.057Z,98499.34
2023-04-14T09:20:34.768Z,98501.03
2023-04-14T09:23:29.648Z,98519.41
2023-04-14T09:26:31.593Z,98520.72
2023-04-14T09:29:33.898Z,98517.06
2023-04-14T09:32:37.035Z,98525.94
2023-04-14T09:35:57.391Z,98517.81
2023-04-14T09:38:59.354Z,98531.50
2023-04-14T09:42:02.334Z,98528.00
2023-04-14T09:45:05.253Z,98522.56
2023-04-14T09:48:08.479Z,98538.28
2023-04-14T09:51:10.727Z,98536.78
2023-04-14T09:54:22.089Z,98541.78
2023-04-14T09:57:26.963Z,98553.81
2023-04-14T10:00:31.766Z,98550.63
2023-04-14T10:03:39.959Z,98565.97
2023-04-14T10:06:41.936Z,98564.63
2023-04-14T10:09:48.132Z,98580.53
2023-04-14T10:12:52.972Z,98578.38
2023-04-14T10:15:54.916Z,98586.69
2023-04-14T10:18:59.872Z,98594.56
2023-04-14T10:22:03.075Z,98593.72
2023-04-14T10:25:05.797Z,98593.72
2023-04-14T10:28:08.794Z,98597.06
2023-04-14T10:31:39.438Z,98596.72
2023-04-14T10:34:56.959Z,98603.38
2023-04-14T10:37:58.866Z,98602.03
2023-04-14T10:41:00.862Z,98602.66
2023-04-14T10:44:02.773Z,98604.03
2023-04-14T10:47:08.440Z,98605.84
2023-04-14T10:50:15.745Z,98610.03
2023-04-14T10:53:17.683Z,98623.88
2023-04-14T10:56:21.671Z,98615.19
2023-04-14T10:59:24.103Z,98627.88
2023-04-14T11:02:30.528Z,98622.41
2023-04-14T11:05:34.480Z,98632.91
2023-04-14T11:08:37.045Z,98630.09
2023-04-14T11:11:39.217Z,98650.28
2023-04-14T11:14:41.663Z,98653.63
2023-04-14T11:17:43.938Z,98654.09
2023-04-14T11:20:46.212Z,98658.63
2023-04-14T11:23:49.164Z,98653.63
2023-04-14T11:26:57.364Z,98663.13
2023-04-14T11:30:01.692Z,98663.97
2023-04-14T11:33:03.700Z,98663.13
2023-04-14T11:36:07.784Z,98662.78
2023-04-14T11:39:11.013Z,98665.28
2023-04-14T11:42:13.130Z,98668.63
2023-04-14T11:45:17.989Z,98679.47
2023-04-14T11:48:20.527Z,98681.63
2023-04-14T11:51:29.306Z,98679.63
2023-04-14T11:54:39.192Z,98688.81
2023-04-14T11:57:47.293Z,98692.50
2023-04-14T12:00:55.084Z,98684.69
2023-04-14T12:07:36.786Z,98701.50
2023-04-14T12:10:40.921Z,98702.84
2023-04-14T12:13:44.504Z,98701.84
2023-04-14T12:16:47.735Z,98694.53
2023-04-14T12:19:50.142Z,98700.19
2023-04-14T12:22:52.103Z,98702.31
2023-04-14T12:25:54.222Z,98701.50
2023-04-14T12:28:57.923Z,98698.97
2023-04-14T12:32:00.007Z,98697.81
2023-04-14T12:35:02.375Z,98704.00
2023-04-14T12:38:14.809Z,98708.53
2023-04-14T12:41:24.072Z,98709.88
2023-04-14T12:44:26.144Z,98713.72
2023-04-14T12:47:33.442Z,98726.56
2023-04-14T12:50:35.626Z,98729.91
2023-04-14T12:53:37.720Z,98724.03
2023-04-14T12:56:42.601Z,98733.91
2023-04-14T12:59:46.010Z,98731.72
2023-04-14T13:02:48.613Z,98743.59
2023-04-14T13:05:51.475Z,98749.56
2023-04-14T13:08:54.498Z,98754.91
2023-04-14T13:11:57.862Z,98748.91
2023-04-14T13:15:00.503Z,98753.91
2023-04-14T13:18:02.415Z,98756.91
2023-04-14T13:21:04.617Z,98755.25
2023-04-14T13:24:07.541Z,98756.25
2023-04-14T13:27:09.551Z,98758.75
2023-04-14T13:30:11.870Z,98760.59
2023-04-14T13:33:13.845Z,98762.25
2023-04-14T13:39:17.713Z,98761.44
2023-04-14T13:42:19.650Z,98764.75
2023-04-14T13:45:21.526Z,98768.59
2023-04-14T13:48:23.572Z,98773.28
2023-04-14T13:51:28.851Z,98780.97
2023-04-14T13:54:30.709Z,98781.63
2023-04-14T13:57:32.700Z,98779.28
2023-04-14T14:00:34.587Z,98789.13
2023-04-14T14:03:38.988Z,98806.13
2023-04-14T14:06:40.906Z,98810.31
2023-04-14T14:09:44.503Z,98810.31
2023-04-14T14:12:46.432Z,98814.66
2023-04-14T14:15:48.684Z,98813.47
2023-04-14T14:18:50.661Z,98810.97
2023-04-14T14:21:52.568Z,98815.66
2023-04-14T14:25:03.753Z,98825.50
2023-04-14T14:28:13.537Z,98834.16
2023-04-14T14:31:16.460Z,98835.16
2023-04-14T14:34:18.306Z,98844.31
2023-04-14T14:37:21.426Z,98846.81
2023-04-14T14:40:23.351Z,98850.63
2023-04-14T14:43:28.397Z,98857.97
2023-04-14T14:46:31.583Z,98858.97
2023-04-14T14:49:33.785Z,98869.97
2023-04-14T14:52:35.843Z,98881.47
2023-04-14T14:55:37.720Z,98883.16
2023-04-14T14:58:39.632Z,98894.81
2023-04-14T15:01:41.531Z,98889.16
2023-04-14T15:04:43.476Z,98900.16
2023-04-14T15:07:45.374Z,98894.34
2023-04-14T15:10:47.295Z,98902.81
2023-04-14T15:13:49.225Z,98904.31
2023-04-14T15:16:51.155Z,98903.75
2023-04-14T15:19:53.136Z,98913.94
2023-04-14T15:22:54.976Z,98919.75
2023-04-14T15:25:56.916Z,98919.75
2023-04-14T15:28:58.856Z,98929.91
2023-04-14T15:32:01.085Z,98931.59
2023-04-14T15:35:03.093Z,98933.78
2023-04-14T15:38:05.331Z,98938.94
2023-04-14T15:41:07.293Z,98945.91
2023-04-14T15:44:09.225Z,98951.06
2023-04-14T15:47:11.377Z,98949.00
2023-04-14T15:50:13.188Z,98953.66
2023-04-14T15:53:21.159Z,98953.66
2023-04-14T15:56:23.458Z,98960.16
2023-04-14T15:59:28.833Z,98975.31
2023-04-14T16:02:35.778Z,98973.06
2023-04-14T16:05:37.762Z,98981.28
2023-04-14T16:08:39.675Z,98980.13
2023-04-14T16:11:41.990Z,98989.44
2023-04-14T16:14:44.075Z,98994.94
2023-04-14T16:17:45.971Z,98994.94
2023-04-14T16:20:50.269Z,99000.72
2023-04-14T16:23:52.367Z,99012.06
2023-04-14T16:26:54.317Z,99016.56
2023-04-14T16:29:56.648Z,99026.72
2023-04-14T16:32:58.622Z,99025.50
2023-04-14T16:36:04.603Z,99040.97
2023-04-14T16:39:06.579Z,99042.63
2023-04-14T16:42:09.578Z,99051.16
2023-04-14T16:45:11.424Z,99059.16
2023-04-14T16:48:17.724Z,99067.31
2023-04-14T16:51:20.225Z,99070.97
2023-04-14T16:54:22.103Z,99076.31
2023-04-14T16:57:23.961Z,99082.53
2023-04-14T17:00:27.119Z,99099.06
2023-04-14T17:03:29.196Z,99101.75
2023-04-14T17:06:31.313Z,99104.41
2023-04-14T17:09:33.397Z,99103.72
2023-04-14T17:12:35.449Z,99109.75
2023-04-14T17:15:37.613Z,99117.75
2023-04-14T17:18:41.580Z,99120.25
2023-04-14T17:21:47.876Z,99124.22
2023-04-14T17:24:50.710Z,99130.53
2023-04-14T17:27:53.851Z,99135.88
2023-04-14T17:30:56.517Z,99133.03
2023-04-14T17:33:58.511Z,99139.50
2023-04-14T17:37:00.525Z,99138.00
2023-04-14T17:40:06.204Z,99146.28
2023-04-14T17:43:08.062Z,99149.09
2023-04-14T17:46:10.927Z,99154.19
2023-04-14T17:49:15.897Z,99163.56
2023-04-14T17:52:18.458Z,99161.06
2023-04-14T17:55:21.545Z,99164.56
2023-04-14T17:58:27.199Z,99173.53
2023-04-14T18:01:30.082Z,99174.38
2023-04-14T18:04:32.197Z,99182.06
2023-04-14T18:07:34.709Z,99189.22
2023-04-14T18:10:37.940Z,99191.75
2023-04-14T18:13:39.884Z,99192.34
2023-04-14T18:16:41.898Z,99194.03
2023-04-14T18:19:43.789Z,99203.28
2023-04-14T18:22:45.728Z,99208.78
2023-04-14T18:28:52.457Z,99203.63
2023-04-14T18:31:56.669Z,99211.47
2023-04-14T18:35:01.758Z,99214.75
2023-04-14T18:38:03.679Z,99211.38
2023-04-14T18:41:05.732Z,99213.94
2023-04-14T18:44:07.703Z,99209.03
2023-04-14T18:47:09.764Z,99213.09
2023-04-14T18:50:11.959Z,99211.28
2023-04-14T18:53:14.920Z,99216.06
2023-04-14T18:56:16.785Z,99218.47
2023-04-14T18:59:18.816Z,99216.78
2023-04-14T19:02:20.885Z,99219.16
2023-04-14T19:05:23.134Z,99220.84
2023-04-14T19:08:25.749Z,99227.44
2023-04-14T19:11:27.629Z,99227.44
2023-04-14T19:14:31.195Z,99222.78
2023-04-14T19:17:35.950Z,99223.63
2023-04-14T19:20:38.604Z,99221.97
2023-04-14T19:23:41.086Z,99222.81
2023-04-14T19:26:43.260Z,99224.50
2023-04-14T19:29:45.821Z,99227.03
2023-04-14T19:32:48.145Z,99220.84
2023-04-14T19:35:51.198Z,99225.34
2023-04-14T19:38:53.033Z,99219.47
2023-04-14T19:41:54.918Z,99232.94
2023-04-14T19:44:57.567Z,99232.09
2023-04-14T19:48:02.023Z,99237.28
2023-04-14T19:51:07.248Z,99230.16
2023-04-14T19:54:09.434Z,99235.19
2023-04-14T19:57:11.357Z,99252.44
2023-04-14T20:00:13.734Z,99242.19
2023-04-14T20:03:15.699Z,99246.41
2023-04-14T20:06:18.970Z,99248.50
2023-04-14T20:09:20.881Z,99254.25
2023-04-14T20:12:23.063Z,99263.22
2023-04-14T20:15:25.554Z,99264.19
2023-04-14T20:18:29.036Z,99269.09
2023-04-14T20:21:31.271Z,99278.50
2023-04-14T20:24:33.099Z,99284.22
2023-04-14T20:27:35.193Z,99288.44
2023-04-14T20:30:37.897Z,99281.00
2023-04-14T20:33:39.975Z,99291.09
2023-04-14T20:36:44.890Z,99286.78
2023-04-14T20:39:48.074Z,99297.84
2023-04-14T20:42:49.939Z,99296.28
2023-04-14T20:45:53.230Z,99301.06
2023-04-14T20:48:55.614Z,99303.31
2023-04-14T20:51:58.559Z,99313.81
2023-04-14T20:55:02.697Z,99310.03
2023-04-14T20:58:04.703Z,99315.06
2023-04-14T21:01:06.692Z,99313.38
2023-04-14T21:04:10.465Z,99322.06
2023-04-14T21:07:12.569Z,99331.59
2023-04-14T21:10:15.706Z,99339.81
2023-04-14T21:15:26.366Z,99343.44
2023-04-14T21:16:39.509Z,99346.09
2023-04-14T21:19:41.566Z,99346.78
2023-04-14T21:22:43.459Z,99355.78
2023-04-14T21:25:46.966Z,99357.16
2023-04-14T21:28:48.915Z,99355.91
2023-04-14T21:31:50.942Z,99359.31
2023-04-14T21:34:52.851Z,99364.88
2023-04-14T21:37:54.764Z,99367.78
2023-04-14T21:40:56.811Z,99363.47
2023-04-14T21:43:58.807Z,99370.03
2023-04-14T21:47:00.674Z,99378.56
2023-04-14T21:50:02.520Z,99374.22
2023-04-14T21:53:04.383Z,99381.91
2023-04-14T21:56:09.756Z,99384.13
2023-04-14T21:59:12.849Z,99387.50
2023-04-14T22:02:14.855Z,99389.19
2023-04-14T22:05:16.710Z,99389.47
2023-04-14T22:08:18.888Z,99396.72
2023-04-14T22:11:22.125Z,99394.06
2023-04-14T22:14:24.030Z,99394.78
2023-04-14T22:17:26.038Z,99395.88
2023-04-14T22:20:27.975Z,99402.19
2023-04-14T22:23:29.880Z,99401.59
2023-04-14T22:26:32.203Z,99414.72
2023-04-14T22:29:35.281Z,99409.28
2023-04-14T22:32:37.431Z,99416.84
2023-04-14T22:35:39.682Z,99408.03
2023-04-14T22:38:42.575Z,99420.94
2023-04-14T22:41:45.512Z,99422.19
2023-04-14T22:44:49.474Z,99419.50
2023-04-14T22:47:51.463Z,99422.31
2023-04-14T22:50:53.365Z,99423.28
2023-04-14T22:53:55.265Z,99431.97
2023-04-14T22:56:57.294Z,99429.88
2023-04-14T22:59:59.287Z,99433.06
2023-04-14T23:03:01.239Z,99437.16
2023-04-14T23:06:04.498Z,99438.13
2023-04-14T23:09:06.449Z,99431.38
2023-04-14T23:12:08.587Z,99437.88
2023-04-14T23:15:10.569Z,99441.19
2023-04-14T23:18:12.503Z,99433.34
2023-04-14T23:21:14.499Z,99442.16
2023-04-14T23:24:16.654Z,99443.84
2023-04-14T23:27:18.510Z,99450.13
2023-04-14T23:30:20.649Z,99452.34
2023-04-14T23:33:22.618Z,99455.47
2023-04-14T23:36:24.546Z,99457.00
2023-04-14T23:39:26.847Z,99452.78
2023-04-14T23:42:28.970Z,99456.81
2023-04-14T23:45:37.103Z,99460.47
2023-04-14T23:48:39.210Z,99463.81
2023-04-14T23:51:41.303Z,99463.81
2023-04-14T23:54:43.178Z,99463.56
2023-04-14T23:57:45.027Z,99466.63
